Time;durP1;ratioP1;P1;durP2;ratioP2;P2;SDS_P1;SDS_P2;PMS_P1;PMS_P2;Temp;Humidity;BMP_temperature;BMP_pressure;BME280_temperature;BME280_humidity;BME280_pressure;Samples;Min_cycle;Max_cycle;Signal;HPM_P1;HPM_P2
2022/05/25 00:01:14;;;;;;;3.60;3.30;;;13.30;86.10;;;;;;1866572;77;21064;-58
2022/05/25 00:03:43;;;;;;;4.03;3.65;;;13.30;86.00;;;;;;1866539;77;21033;-59
2022/05/25 00:06:13;;;;;;;3.85;3.30;;;13.30;86.10;;;;;;1866576;77;21032;-59
2022/05/25 00:08:43;;;;;;;3.77;3.40;;;13.30;86.20;;;;;;1866462;77;21037;-58
2022/05/25 00:11:13;;;;;;;4.55;3.17;;;13.20;86.00;;;;;;1866470;77;21065;-59
2022/05/25 00:13:42;;;;;;;5.08;3.55;;;13.10;85.90;;;;;;1866395;77;21139;-59
2022/05/25 00:16:11;;;;;;;4.40;3.70;;;13.00;86.60;;;;;;1866478;77;21049;-59
2022/05/25 00:21:12;;;;;;;4.37;3.50;;;13.00;86.70;;;;;;1823591;77;21103;-58
2022/05/25 00:23:41;;;;;;;3.87;3.47;;;13.10;86.90;;;;;;1866527;77;21115;-59
2022/05/25 00:26:11;;;;;;;4.92;3.40;;;13.20;87.00;;;;;;1866514;77;21146;-59
2022/05/25 00:28:40;;;;;;;4.28;3.35;;;13.30;87.10;;;;;;1866452;77;21076;-59
2022/05/25 00:31:09;;;;;;;3.47;3.12;;;13.30;87.00;;;;;;1866598;77;21045;-59
2022/05/25 00:33:39;;;;;;;5.58;3.55;;;13.40;86.90;;;;;;1866518;77;21057;-59
2022/05/25 00:36:08;;;;;;;3.10;2.77;;;13.40;86.80;;;;;;1866544;77;21112;-59
2022/05/25 00:38:37;;;;;;;3.42;3.10;;;13.40;86.70;;;;;;1866483;77;21021;-59
2022/05/25 00:41:07;;;;;;;4.15;3.45;;;13.40;86.60;;;;;;1866553;77;21045;-58
2022/05/25 00:43:37;;;;;;;4.42;3.62;;;13.40;86.40;;;;;;1866508;77;21115;-59
2022/05/25 00:46:09;;;;;;;6.72;3.50;;;13.30;86.10;;;;;;1866416;77;21045;-58
2022/05/25 00:49:03;;;;;;;4.85;3.27;;;13.30;86.10;;;;;;1866575;77;21049;-59
2022/05/25 00:51:45;;;;;;;6.95;3.55;;;13.20;86.10;;;;;;1833870;78;21022;-58
2022/05/25 00:54:17;;;;;;;4.75;3.10;;;13.10;86.40;;;;;;1833779;75;21092;-58
2022/05/25 00:56:49;;;;;;;4.28;3.27;;;13.00;86.50;;;;;;1832784;78;21058;-59
2022/05/25 00:59:21;;;;;;;4.40;3.58;;;13.00;86.70;;;;;;1799946;80;21068;-58
2022/05/25 01:01:51;;;;;;;4.17;2.80;;;13.00;86.90;;;;;;1833889;78;21019;-59
2022/05/25 01:04:20;;;;;;;3.90;3.50;;;13.10;86.90;;;;;;1799968;80;21064;-59
2022/05/25 01:07:00;;;;;;;4.42;3.37;;;13.10;87.00;;;;;;1800055;80;21069;-59
2022/05/25 01:09:47;;;;;;;3.60;3.30;;;13.10;86.90;;;;;;1833718;78;21077;-58
2022/05/25 01:12:40;;;;;;;3.67;3.33;;;13.10;86.60;;;;;;1833267;75;21509;-57
2022/05/25 01:15:27;;;;;;;3.80;3.40;;;13.00;86.70;;;;;;1832486;78;21030;-57
2022/05/25 01:18:24;;;;;;;5.50;3.40;;;13.00;86.80;;;;;;1833838;78;21015;-58
2022/05/25 01:21:12;;;;;;;3.67;3.37;;;12.90;86.80;;;;;;1833631;77;21457;-59
2022/05/25 01:24:10;;;;;;;3.72;3.42;;;12.90;86.80;;;;;;1833743;78;21058;-60
2022/05/25 01:26:58;;;;;;;3.55;3.25;;;13.00;86.90;;;;;;1799894;79;21033;-59
2022/05/25 01:29:49;;;;;;;4.53;3.42;;;13.00;87.00;;;;;;1799944;80;21520;-59
2022/05/25 01:32:32;;;;;;;4.85;3.45;;;13.00;86.80;;;;;;1832750;78;21050;-59
2022/05/25 01:35:07;;;;;;;4.00;3.47;;;13.00;86.70;;;;;;1833723;78;21116;-60
2022/05/25 01:37:54;;;;;;;3.58;3.27;;;13.00;86.70;;;;;;1832576;78;21489;-59
2022/05/25 01:40:32;;;;;;;4.45;3.70;;;13.00;86.80;;;;;;1799412;78;21108;-59
2022/05/25 01:43:13;;;;;;;4.12;3.67;;;13.10;86.90;;;;;;1833687;78;21066;-59
2022/05/25 01:45:57;;;;;;;3.92;3.58;;;13.10;87.00;;;;;;1833889;78;21054;-59
2022/05/25 01:48:28;;;;;;;5.85;4.10;;;13.10;86.90;;;;;;1834146;78;21018;-60
2022/05/25 01:51:01;;;;;;;5.28;3.25;;;13.10;86.30;;;;;;1790342;80;21129;-59
2022/05/25 01:53:33;;;;;;;4.87;3.52;;;12.90;86.20;;;;;;1783646;80;21094;-59
2022/05/25 01:56:05;;;;;;;4.67;3.80;;;12.80;86.60;;;;;;1785364;79;21058;-60
2022/05/25 01:58:36;;;;;;;3.65;3.35;;;12.80;87.00;;;;;;1785339;79;21162;-60
2022/05/25 02:01:08;;;;;;;6.28;3.80;;;12.80;87.20;;;;;;1785530;80;21152;-59
2022/05/25 02:06:52;;;;;;;4.28;3.87;;;12.80;86.50;;;;;;1785491;80;21070;-60
2022/05/25 02:09:44;;;;;;;5.35;3.58;;;12.70;87.00;;;;;;1785326;79;21180;-59
2022/05/25 02:12:45;;;;;;;6.97;3.67;;;12.70;87.40;;;;;;1785459;80;21132;-59
2022/05/25 02:15:26;;;;;;;5.22;3.67;;;12.70;87.20;;;;;;1782545;80;21069;-59
2022/05/25 02:17:58;;;;;;;7.83;4.05;;;12.70;87.50;;;;;;1785448;80;21039;-60
2022/05/25 02:20:39;;;;;;;9.60;3.80;;;12.70;87.20;;;;;;1784843;77;21137;-60
2022/05/25 02:23:29;;;;;;;8.68;3.98;;;12.70;87.30;;;;;;1784145;79;21038;-59
2022/05/25 02:26:03;;;;;;;5.55;3.52;;;12.60;87.40;;;;;;1785296;80;21062;-58
2022/05/25 02:28:35;;;;;;;6.55;3.80;;;12.60;87.70;;;;;;1785530;80;21105;-57
2022/05/25 02:31:07;;;;;;;4.75;3.62;;;12.80;87.70;;;;;;1785161;78;21058;-58
2022/05/25 02:33:39;;;;;;;5.17;3.70;;;12.80;87.70;;;;;;1785463;80;21090;-58
2022/05/25 02:36:10;;;;;;;5.10;3.90;;;12.90;87.70;;;;;;1785442;80;21654;-58
2022/05/25 02:38:41;;;;;;;6.15;3.52;;;13.00;87.50;;;;;;1785426;80;21050;-58
2022/05/25 02:41:31;;;;;;;5.25;3.80;;;13.00;87.40;;;;;;1785498;80;21026;-58
2022/05/25 02:44:02;;;;;;;3.62;3.27;;;13.10;87.50;;;;;;1783048;80;21061;-58
2022/05/25 02:46:31;;;;;;;7.65;4.08;;;13.10;87.30;;;;;;1785214;80;21054;-58
2022/05/25 02:49:00;;;;;;;3.98;3.58;;;13.10;87.30;;;;;;1785181;78;21030;-58
2022/05/25 02:51:30;;;;;;;7.35;3.47;;;13.10;87.50;;;;;;1785179;78;21090;-58
2022/05/25 02:53:59;;;;;;;4.10;3.40;;;13.20;87.60;;;;;;1785195;79;21579;-58
2022/05/25 02:56:29;;;;;;;6.40;3.90;;;13.10;87.40;;;;;;1785333;80;21124;-58
2022/05/25 02:58:58;;;;;;;3.83;3.50;;;13.20;87.50;;;;;;1785194;78;21055;-58
2022/05/25 03:01:28;;;;;;;4.92;3.98;;;13.30;87.50;;;;;;1785259;80;21126;-58
2022/05/25 03:03:58;;;;;;;4.60;3.85;;;13.30;87.60;;;;;;1785295;80;21140;-58
2022/05/25 03:06:27;;;;;;;5.30;3.47;;;13.40;87.60;;;;;;1785225;80;21066;-58
2022/05/25 03:08:57;;;;;;;4.33;3.77;;;13.40;87.60;;;;;;1785220;80;21069;-58
2022/05/25 03:11:26;;;;;;;6.25;3.77;;;13.50;87.60;;;;;;1785188;78;21054;-58
2022/05/25 03:13:56;;;;;;;4.70;4.20;;;13.50;87.50;;;;;;1785293;80;21124;-58
2022/05/25 03:16:25;;;;;;;4.47;3.80;;;13.50;87.40;;;;;;1785228;78;21078;-58
2022/05/25 03:18:55;;;;;;;4.50;3.83;;;13.60;87.30;;;;;;1785316;80;21070;-58
2022/05/25 03:21:25;;;;;;;5.15;4.00;;;13.60;87.10;;;;;;1785327;80;21054;-57
2022/05/25 03:23:54;;;;;;;3.50;3.20;;;13.50;87.10;;;;;;1785131;80;21034;-58
2022/05/25 03:26:24;;;;;;;6.78;3.52;;;13.50;87.30;;;;;;1785288;80;21153;-58
2022/05/25 03:28:53;;;;;;;4.53;4.12;;;13.60;87.40;;;;;;1785235;80;21062;-58
2022/05/25 03:31:23;;;;;;;6.50;5.10;;;13.60;87.30;;;;;;1785280;80;21175;-58
2022/05/25 03:33:52;;;;;;;6.75;5.22;;;13.60;87.40;;;;;;1785163;79;21042;-58
2022/05/25 03:36:22;;;;;;;5.15;4.37;;;13.70;87.40;;;;;;1785289;80;21054;-58
2022/05/25 03:38:51;;;;;;;7.28;4.05;;;13.70;87.40;;;;;;1785273;80;21124;-57
2022/05/25 03:41:22;;;;;;;5.28;3.87;;;13.80;87.50;;;;;;1785325;80;21027;-58
2022/05/25 03:43:52;;;;;;;6.72;4.40;;;13.90;87.20;;;;;;1785316;80;21074;-58
2022/05/25 03:46:22;;;;;;;5.17;3.42;;;14.00;87.10;;;;;;1785222;80;21038;-58
2022/05/25 03:48:51;;;;;;;3.60;3.30;;;14.10;87.00;;;;;;1785237;80;21034;-58
2022/05/25 03:51:20;;;;;;;8.23;4.08;;;14.30;86.40;;;;;;1797213;79;21058;-58
2022/05/25 03:53:52;;;;;;;7.08;4.00;;;14.30;86.30;;;;;;1805424;79;21085;-58
2022/05/25 03:56:22;;;;;;;6.62;3.87;;;14.40;86.20;;;;;;1805352;79;21032;-58
2022/05/25 03:58:51;;;;;;;13.28;3.98;;;14.50;86.10;;;;;;1805367;79;21057;-57
2022/05/25 04:01:20;;;;;;;8.50;3.52;;;14.60;85.90;;;;;;1805256;79;21056;-58
2022/05/25 04:03:50;;;;;;;9.85;4.03;;;14.80;85.70;;;;;;1805383;79;21061;-58
2022/05/25 04:06:19;;;;;;;7.40;4.53;;;14.90;85.30;;;;;;1805375;79;21130;-58
2022/05/25 04:08:48;;;;;;;6.30;3.83;;;14.90;85.10;;;;;;1805542;79;21080;-58
2022/05/25 04:11:18;;;;;;;11.55;4.35;;;15.10;85.10;;;;;;1805494;79;21056;-58
2022/05/25 04:13:47;;;;;;;6.00;3.50;;;15.20;85.10;;;;;;1805564;79;21138;-58
2022/05/25 04:16:17;;;;;;;5.28;3.87;;;15.30;85.00;;;;;;1805477;79;21057;-58
2022/05/25 04:18:47;;;;;;;7.90;4.00;;;15.40;84.50;;;;;;1805437;79;21136;-57
2022/05/25 04:21:16;;;;;;;9.03;3.90;;;15.50;84.30;;;;;;1805397;79;21111;-57
2022/05/25 04:23:46;;;;;;;7.62;3.60;;;15.60;84.10;;;;;;1805263;79;21049;-58
2022/05/25 04:26:15;;;;;;;6.40;3.58;;;15.80;83.90;;;;;;1805148;79;21060;-58
2022/05/25 04:28:45;;;;;;;5.25;3.12;;;15.80;83.70;;;;;;1805273;79;21029;-58
2022/05/25 04:31:14;;;;;;;5.42;3.37;;;15.90;83.50;;;;;;1805364;79;21057;-58
2022/05/25 04:33:43;;;;;;;7.97;4.22;;;16.00;83.30;;;;;;1805277;79;21171;-58
2022/05/25 04:36:13;;;;;;;6.55;3.05;;;16.20;83.20;;;;;;1805362;78;21158;-58
2022/05/25 04:38:43;;;;;;;8.55;3.22;;;16.30;83.00;;;;;;1805342;79;21338;-58
2022/05/25 04:41:12;;;;;;;14.85;3.60;;;16.40;82.80;;;;;;1805455;79;21135;-58
2022/05/25 04:43:42;;;;;;;4.75;3.37;;;16.50;82.20;;;;;;1805390;79;21150;-58
2022/05/25 04:46:13;;;;;;;6.30;3.12;;;16.50;81.60;;;;;;1805372;79;21061;-58
2022/05/25 04:48:44;;;;;;;5.95;3.27;;;16.70;81.70;;;;;;1805331;79;21073;-58
2022/05/25 04:51:14;;;;;;;3.50;3.00;;;16.70;81.40;;;;;;1805966;78;21088;-58
2022/05/25 04:53:44;;;;;;;6.35;3.33;;;16.80;81.20;;;;;;1827902;78;21053;-58
2022/05/25 04:59:01;;;;;;;9.90;4.12;;;17.00;80.80;;;;;;1833623;78;21063;-59
2022/05/25 05:01:31;;;;;;;6.83;3.15;;;17.00;80.50;;;;;;1800023;80;20999;-58
2022/05/25 05:04:00;;;;;;;5.97;2.70;;;17.20;80.60;;;;;;1833425;78;21115;-58
2022/05/25 05:06:30;;;;;;;4.80;3.33;;;17.30;79.90;;;;;;1800017;80;21034;-58
2022/05/25 05:08:59;;;;;;;5.62;2.67;;;17.40;78.90;;;;;;1833422;78;21049;-57
2022/05/25 05:11:28;;;;;;;9.18;3.37;;;17.40;77.50;;;;;;1799954;80;21034;-57
2022/05/25 05:13:58;;;;;;;5.65;2.37;;;17.50;76.80;;;;;;1833628;78;21143;-58
2022/05/25 05:16:27;;;;;;;3.87;3.25;;;17.50;76.30;;;;;;1800051;80;21002;-57
2022/05/25 05:18:59;;;;;;;6.35;3.20;;;17.50;75.90;;;;;;1832160;77;21098;-58
2022/05/25 05:21:33;;;;;;;5.92;3.02;;;17.60;75.90;;;;;;1782275;79;21123;-57
2022/05/25 05:24:03;;;;;;;3.30;2.35;;;17.60;76.10;;;;;;1833537;78;21053;-57
2022/05/25 05:26:32;;;;;;;4.12;2.60;;;17.80;75.90;;;;;;1800307;80;21010;-57
2022/05/25 05:29:02;;;;;;;5.40;2.75;;;17.80;75.90;;;;;;1833656;78;21348;-57
2022/05/25 05:31:32;;;;;;;7.83;3.15;;;17.90;75.40;;;;;;1800240;80;21018;-57
2022/05/25 05:34:01;;;;;;;8.18;3.20;;;18.00;74.90;;;;;;1833613;78;21057;-57
2022/05/25 05:36:33;;;;;;;4.17;2.20;;;18.10;74.40;;;;;;1800089;80;21092;-57
2022/05/25 05:39:05;;;;;;;10.82;3.58;;;18.10;74.30;;;;;;1833630;78;21064;-58
2022/05/25 05:41:52;;;;;;;4.53;2.30;;;18.10;74.20;;;;;;1799112;79;21089;-58
2022/05/25 05:44:24;;;;;;;3.00;2.70;;;18.20;74.80;;;;;;1796004;78;21139;-57
2022/05/25 05:46:55;;;;;;;3.85;1.98;;;18.30;74.40;;;;;;1833701;78;21073;-57
2022/05/25 05:49:25;;;;;;;4.65;2.33;;;18.30;74.10;;;;;;1800013;80;21061;-58
2022/05/25 05:51:55;;;;;;;4.67;2.40;;;18.40;74.00;;;;;;1832721;78;21096;-56
2022/05/25 05:54:24;;;;;;;4.58;3.10;;;18.40;73.20;;;;;;1785433;80;21085;-57
2022/05/25 05:56:54;;;;;;;7.95;2.77;;;18.50;73.50;;;;;;1785373;80;21479;-58
2022/05/25 05:59:23;;;;;;;5.45;2.60;;;18.60;72.90;;;;;;1785346;80;21070;-58
2022/05/25 06:01:53;;;;;;;5.90;2.55;;;18.70;72.50;;;;;;1785405;80;21038;-58
2022/05/25 06:04:22;;;;;;;3.67;3.02;;;18.70;72.70;;;;;;1785268;80;21058;-58
2022/05/25 06:06:51;;;;;;;15.98;3.80;;;18.80;72.40;;;;;;1785376;79;21467;-58
2022/05/25 06:09:21;;;;;;;6.33;2.77;;;18.80;71.90;;;;;;1785329;80;21124;-58
2022/05/25 06:11:50;;;;;;;9.25;2.65;;;18.90;72.30;;;;;;1785428;80;21062;-58
2022/05/25 06:14:20;;;;;;;5.83;2.47;;;19.00;72.10;;;;;;1785308;80;21062;-57
2022/05/25 06:19:39;;;;;;;4.10;1.90;;;19.10;71.50;;;;;;1785490;80;21082;-57
2022/05/25 06:22:10;;;;;;;4.10;2.52;;;19.20;71.40;;;;;;1785510;79;21480;-57
2022/05/25 06:24:42;;;;;;;6.00;2.05;;;19.20;71.20;;;;;;1785484;80;21062;-58
2022/05/25 06:27:12;;;;;;;4.60;2.37;;;19.30;71.20;;;;;;1785393;80;21161;-57
2022/05/25 06:29:43;;;;;;;4.55;2.27;;;19.40;70.90;;;;;;1785453;80;21062;-57
2022/05/25 06:32:14;;;;;;;7.22;2.47;;;19.40;70.50;;;;;;1785336;80;21074;-58
2022/05/25 06:34:47;;;;;;;14.35;2.65;;;19.50;70.70;;;;;;1785502;80;21066;-58
2022/05/25 06:37:16;;;;;;;4.20;2.50;;;19.60;70.60;;;;;;1785101;80;21625;-58
2022/05/25 06:39:46;;;;;;;2.87;2.30;;;19.70;70.40;;;;;;1785399;79;21073;-57
2022/05/25 06:42:15;;;;;;;6.12;2.90;;;19.70;69.90;;;;;;1785293;80;21113;-58
2022/05/25 06:44:46;;;;;;;8.85;3.10;;;19.70;69.60;;;;;;1783627;80;21106;-57
2022/05/25 06:47:17;;;;;;;5.03;2.55;;;19.60;69.20;;;;;;1785230;80;21140;-58
2022/05/25 06:49:46;;;;;;;6.60;3.40;;;19.50;69.80;;;;;;1785309;80;21054;-58
2022/05/25 06:52:15;;;;;;;4.17;2.42;;;19.70;70.20;;;;;;1785351;80;21136;-57
2022/05/25 06:54:45;;;;;;;4.62;2.55;;;19.80;69.50;;;;;;1795931;78;21148;-57
2022/05/25 06:57:15;;;;;;;6.83;2.47;;;19.90;69.00;;;;;;1796392;80;21093;-57
2022/05/25 06:59:44;;;;;;;8.80;3.35;;;20.00;68.40;;;;;;1796507;80;21073;-58
2022/05/25 07:02:14;;;;;;;7.37;2.50;;;20.00;68.10;;;;;;1796453;80;21053;-58
2022/05/25 07:04:43;;;;;;;8.28;2.70;;;19.90;68.00;;;;;;1796270;80;21171;-57
2022/05/25 07:07:12;;;;;;;7.00;3.12;;;19.80;68.20;;;;;;1796392;80;21057;-58
2022/05/25 07:09:43;;;;;;;4.47;2.67;;;19.80;68.50;;;;;;1796484;80;21054;-57
2022/05/25 07:12:12;;;;;;;5.55;2.50;;;19.90;68.20;;;;;;1796372;78;21136;-57
2022/05/25 07:14:41;;;;;;;8.33;3.30;;;19.90;68.00;;;;;;1796471;80;21061;-58
2022/05/25 07:17:10;;;;;;;7.83;3.20;;;20.00;67.80;;;;;;1796249;78;21061;-57
2022/05/25 07:19:40;;;;;;;6.05;2.80;;;20.10;67.30;;;;;;1796395;80;21579;-57
2022/05/25 07:22:13;;;;;;;4.28;2.77;;;20.20;66.50;;;;;;1796452;80;21022;-57
2022/05/25 07:24:42;;;;;;;3.00;2.20;;;20.20;65.40;;;;;;1796392;79;21120;-57
2022/05/25 07:27:11;;;;;;;6.40;2.92;;;20.20;65.50;;;;;;1796464;80;21488;-58
2022/05/25 07:29:41;;;;;;;5.05;2.30;;;20.30;65.00;;;;;;1796340;80;21136;-58
2022/05/25 07:32:12;;;;;;;5.05;2.80;;;20.30;64.40;;;;;;1796408;80;21149;-57
2022/05/25 07:34:44;;;;;;;7.50;2.52;;;20.40;64.40;;;;;;1796306;78;21054;-58
2022/05/25 07:37:16;;;;;;;5.45;2.55;;;20.40;64.20;;;;;;1793558;80;21054;-58
2022/05/25 07:42:36;;;;;;;4.35;2.62;;;20.60;63.60;;;;;;1898027;75;21077;-58
2022/05/25 07:45:06;;;;;;;2.50;2.30;;;20.70;63.80;;;;;;1889735;74;21635;-58
2022/05/25 07:47:35;;;;;;;4.35;2.45;;;20.70;62.80;;;;;;1890247;74;21136;-58
2022/05/25 07:50:06;;;;;;;4.53;2.25;;;20.80;62.00;;;;;;1866429;77;21425;-58
2022/05/25 07:52:38;;;;;;;3.00;1.85;;;20.80;61.60;;;;;;1901408;74;21036;-57
2022/05/25 07:55:09;;;;;;;7.00;2.70;;;20.90;61.60;;;;;;1904397;75;21040;-57
2022/05/25 07:57:39;;;;;;;6.87;2.83;;;21.00;61.20;;;;;;1904311;75;21102;-58
2022/05/25 08:00:09;;;;;;;6.55;2.98;;;21.00;61.70;;;;;;1904488;75;21110;-57
2022/05/25 08:05:49;;;;;;;4.83;2.33;;;21.10;59.70;;;;;;1902109;75;21127;-58
2022/05/25 08:08:23;;;;;;;12.25;3.02;;;21.10;59.10;;;;;;1891570;75;21057;-60
2022/05/25 08:10:58;;;;;;;5.20;2.77;;;21.10;58.90;;;;;;1891842;75;21167;-57
2022/05/25 08:13:30;;;;;;;7.20;3.22;;;21.10;59.10;;;;;;1860184;77;21057;-58
2022/05/25 08:16:00;;;;;;;5.30;3.15;;;21.20;58.80;;;;;;1895068;75;21088;-58
2022/05/25 08:18:29;;;;;;;7.92;2.85;;;21.30;57.50;;;;;;1899897;75;21109;-58
2022/05/25 08:20:59;;;;;;;3.55;2.00;;;21.40;57.20;;;;;;1900080;75;21184;-58
2022/05/25 08:23:28;;;;;;;3.80;2.05;;;21.40;57.60;;;;;;1899709;75;21070;-59
2022/05/25 08:25:57;;;;;;;7.25;2.10;;;21.40;57.20;;;;;;1899882;75;21094;-58
2022/05/25 08:28:27;;;;;;;14.65;2.80;;;21.50;56.40;;;;;;1899956;75;21087;-59
2022/05/25 08:30:57;;;;;;;3.87;2.50;;;21.40;56.60;;;;;;1899790;75;21144;-58
2022/05/25 08:33:26;;;;;;;11.38;3.33;;;21.30;56.00;;;;;;1889680;75;21083;-59
2022/05/25 08:38:46;;;;;;;6.17;2.47;;;21.20;55.10;;;;;;1899327;75;21140;-60
2022/05/25 08:41:16;;;;;;;4.95;2.65;;;21.30;55.10;;;;;;1896248;76;21102;-60
2022/05/25 08:43:50;;;;;;;7.22;2.67;;;21.40;54.80;;;;;;1903064;75;21087;-61
2022/05/25 08:46:22;;;;;;;5.83;2.50;;;21.50;55.60;;;;;;1903066;75;21444;-58
2022/05/25 08:48:52;;;;;;;3.87;2.33;;;21.60;56.40;;;;;;1903229;74;21063;-59
2022/05/25 08:51:25;;;;;;;5.05;2.33;;;21.60;54.80;;;;;;1903390;74;21107;-60
2022/05/25 08:53:56;;;;;;;4.20;2.27;;;21.70;55.10;;;;;;1903203;74;21550;-62
2022/05/25 08:56:46;;;;;;;5.70;2.25;;;21.70;55.40;;;;;;1937340;73;21032;-60
2022/05/25 08:59:26;;;;;;;5.83;3.05;;;21.80;54.10;;;;;;1937213;74;21486;-58
2022/05/25 09:02:04;;;;;;;8.00;3.00;;;21.80;54.30;;;;;;1937142;73;21013;-58
2022/05/25 09:05:07;;;;;;;6.00;2.95;;;21.80;54.70;;;;;;1936208;73;21035;-58
2022/05/25 09:07:56;;;;;;;3.58;2.08;;;21.70;55.30;;;;;;1898641;74;21089;-59
2022/05/25 09:10:26;;;;;;;3.72;2.37;;;21.70;54.70;;;;;;1936691;74;21133;-59
2022/05/25 09:13:07;;;;;;;4.03;2.05;;;21.70;54.40;;;;;;1935222;74;21016;-60
2022/05/25 09:16:15;;;;;;;11.93;2.80;;;21.70;53.50;;;;;;1900233;75;21058;-60
2022/05/25 09:18:13;;;;;;;3.90;2.60;;;21.70;53.00;;;;;;1905301;74;21498;-58
2022/05/25 09:20:48;;;;;;;5.55;2.92;;;21.70;53.80;;;;;;1901847;74;21113;-58
2022/05/25 09:23:19;;;;;;;4.20;2.72;;;21.70;54.00;;;;;;1901673;74;21028;-58
2022/05/25 09:25:49;;;;;;;3.22;2.47;;;21.60;54.30;;;;;;1901735;75;21056;-58
2022/05/25 09:28:20;;;;;;;9.45;2.62;;;21.60;54.60;;;;;;1901577;75;21062;-58
2022/05/25 09:30:56;;;;;;;5.95;2.70;;;21.60;54.20;;;;;;1900717;74;21106;-60
2022/05/25 09:33:43;;;;;;;4.60;2.40;;;21.50;54.50;;;;;;1937026;74;21059;-59
2022/05/25 09:36:19;;;;;;;3.92;2.75;;;21.50;54.90;;;;;;1936939;73;21005;-61
2022/05/25 09:39:07;;;;;;;4.95;2.12;;;21.50;55.20;;;;;;1935277;73;21067;-62
2022/05/25 09:41:38;;;;;;;2.30;2.10;;;21.50;55.10;;;;;;1934215;74;21146;-61
2022/05/25 09:44:07;;;;;;;6.65;2.62;;;21.50;55.10;;;;;;1934778;73;21571;-60
2022/05/25 09:46:39;;;;;;;19.85;11.05;;;21.40;55.40;;;;;;1906303;74;21020;-62
2022/05/25 09:49:12;;;;;;;5.28;1.90;;;21.50;56.60;;;;;;1904434;75;21146;-59
2022/05/25 09:51:52;;;;;;;2.25;1.82;;;21.40;54.90;;;;;;1911433;74;21538;-59
2022/05/25 09:54:41;;;;;;;3.75;2.30;;;21.30;54.90;;;;;;1881813;74;21060;-59
2022/05/25 09:57:27;;;;;;;2.72;2.02;;;21.10;54.50;;;;;;1891946;75;21936;-58
2022/05/25 10:00:18;;;;;;;3.33;2.47;;;20.90;55.50;;;;;;1929100;74;21055;-57
2022/05/25 10:03:12;;;;;;;3.92;2.00;;;20.80;56.00;;;;;;1929322;74;21001;-58
2022/05/25 10:06:05;;;;;;;6.08;2.42;;;20.70;56.60;;;;;;1883552;74;21165;-58
2022/05/25 10:08:37;;;;;;;3.72;2.62;;;20.70;51.70;;;;;;1928241;74;21346;-57
2022/05/25 10:11:29;;;;;;;2.92;2.47;;;20.50;54.00;;;;;;1929790;74;21113;-58
2022/05/25 10:14:04;;;;;;;7.10;2.83;;;20.40;52.90;;;;;;1930131;74;21024;-58
2022/05/25 10:16:34;;;;;;;4.35;1.77;;;20.30;51.90;;;;;;1879236;75;21079;-57
2022/05/25 10:19:03;;;;;;;3.10;2.02;;;20.00;51.40;;;;;;1936848;73;21044;-57
2022/05/25 10:21:35;;;;;;;5.33;2.83;;;19.90;50.70;;;;;;1936545;73;21067;-59
2022/05/25 10:24:28;;;;;;;2.05;1.70;;;19.60;52.20;;;;;;1936935;74;21530;-60
2022/05/25 10:27:00;;;;;;;6.80;2.33;;;19.40;49.30;;;;;;1935779;74;21029;-61
2022/05/25 10:38:01;;;;;;;2.00;1.77;;;18.80;52.80;;;;;;1936958;74;21064;-56
2022/05/25 10:40:32;;;;;;;4.25;2.52;;;18.70;53.50;;;;;;1937227;73;21091;-54
2022/05/25 10:43:02;;;;;;;2.72;2.30;;;18.70;54.90;;;;;;1937115;74;21088;-56
2022/05/25 10:45:36;;;;;;;2.75;2.35;;;18.60;55.40;;;;;;1937194;73;21040;-57
2022/05/25 10:48:21;;;;;;;3.25;2.30;;;18.70;56.80;;;;;;1937399;73;21033;-58
2022/05/25 10:50:59;;;;;;;2.87;2.20;;;18.70;57.30;;;;;;1936753;73;21079;-54
2022/05/25 10:54:44;;;;;;;7.55;5.87;;;18.70;57.30;;;;;;1937132;73;21513;-52
2022/05/25 10:56:25;;;;;;;6.90;5.62;;;18.70;58.60;;;;;;1939707;73;21083;-58
2022/05/25 10:59:10;;;;;;;;;;;18.70;60.30;;;;;;1916053;74;21579;-58
2022/05/25 11:02:06;;;;;;;4.10;3.70;;;18.70;60.30;;;;;;1901435;75;20128;-58
2022/05/25 11:04:52;;;;;;;6.25;3.20;;;18.80;60.70;;;;;;1901846;75;21186;-57
2022/05/25 11:07:28;;;;;;;4.90;4.25;;;18.70;61.40;;;;;;1900606;75;21145;-57
2022/05/25 11:10:17;;;;;;;3.37;2.80;;;18.70;62.00;;;;;;1899657;75;21183;-57
2022/05/25 11:13:05;;;;;;;7.25;3.02;;;18.70;62.50;;;;;;1900755;74;21040;-57
2022/05/25 11:15:58;;;;;;;5.15;3.10;;;18.60;62.80;;;;;;1901778;75;21015;-58
2022/05/25 11:18:36;;;;;;;6.12;3.12;;;18.60;63.60;;;;;;1902470;75;21030;-58
2022/05/25 11:21:23;;;;;;;3.85;2.70;;;18.50;63.60;;;;;;1901645;74;21626;-58
2022/05/25 11:23:55;;;;;;;3.77;3.17;;;18.50;64.00;;;;;;1902550;75;21493;-58
2022/05/25 11:26:49;;;;;;;3.92;2.67;;;18.60;64.20;;;;;;1901179;75;21481;-58
2022/05/25 11:29:24;;;;;;;4.47;2.35;;;18.60;64.40;;;;;;1902553;75;21086;-58
2022/05/25 11:32:12;;;;;;;4.53;2.90;;;18.60;64.10;;;;;;1902390;75;21062;-58
2022/05/25 11:35:00;;;;;;;2.77;2.50;;;18.60;64.40;;;;;;1901861;74;21061;-58
2022/05/25 11:37:51;;;;;;;2.35;2.02;;;18.60;64.50;;;;;;1902711;75;21054;-58
2022/05/25 11:40:44;;;;;;;2.30;2.10;;;18.50;63.70;;;;;;1932232;73;21056;-58
2022/05/25 11:43:33;;;;;;;2.50;2.30;;;18.40;63.20;;;;;;1936186;74;21051;-58
2022/05/25 11:46:24;;;;;;;5.97;2.33;;;18.30;62.50;;;;;;1936254;74;21040;-58
2022/05/25 11:48:58;;;;;;;3.70;2.55;;;18.30;63.20;;;;;;1936238;74;21078;-58
2022/05/25 11:52:03;;;;;;;6.08;2.77;;;18.30;63.70;;;;;;1936267;73;21033;-58
2022/05/25 11:54:44;;;;;;;3.52;2.62;;;18.30;63.90;;;;;;1936170;73;21098;-58
2022/05/25 11:57:22;;;;;;;2.87;2.60;;;18.30;64.00;;;;;;1936195;74;21012;-57
2022/05/25 11:59:54;;;;;;;17.48;3.22;;;18.30;64.30;;;;;;1935929;73;21105;-57
2022/05/25 12:02:30;;;;;;;3.42;2.83;;;;;;;;;;1933609;74;21001;-56
2022/05/25 12:05:13;;;;;;;6.00;3.42;;;;;;;;;;1934747;73;21086;-57
2022/05/25 12:07:55;;;;;;;5.37;2.42;;;;;;;;;;1935136;73;21064;-57
2022/05/25 12:10:25;;;;;;;4.15;2.70;;;;;;;;;;1936090;74;20972;-57
2022/05/25 12:12:54;;;;;;;3.77;2.80;;;;;;;;;;1936198;74;21067;-57
2022/05/25 12:15:34;;;;;;;3.60;2.30;;;;;;;;;;1936135;74;21008;-57
2022/05/25 12:18:16;;;;;;;3.25;2.42;;;;;;;;;;1936154;74;21040;-57
2022/05/25 12:20:52;;;;;;;3.90;2.50;;;;;;;;;;1936188;73;21007;-56
2022/05/25 12:23:22;;;;;;;3.33;2.33;;;;;;;;;;1936126;74;21072;-57
2022/05/25 12:25:58;;;;;;;3.83;2.58;;;;;;;;;;1936278;74;21553;-58
2022/05/25 12:28:28;;;;;;;4.33;2.60;;;;;;;;;;1936277;74;21012;-57
2022/05/25 12:31:01;;;;;;;3.22;2.50;;;;;;;;;;1935462;74;21052;-58
2022/05/25 12:33:29;;;;;;;2.98;2.40;;;;;;;;;;1936281;74;21005;-58
2022/05/25 12:35:58;;;;;;;2.75;2.35;;;;;;;;;;1936217;73;21076;-58
2022/05/25 12:38:28;;;;;;;4.35;2.45;;;;;;;;;;1936255;73;21070;-57
2022/05/25 12:40:58;;;;;;;2.35;2.02;;;;;;;;;;1936222;74;21157;-57
2022/05/25 12:43:37;;;;;;;2.42;2.22;;;;;;;;;;1931547;73;21094;-57
2022/05/25 12:48:56;;;;;;;8.15;4.03;;;;;;;;;;1936109;74;21028;-58
2022/05/25 12:51:40;;;;;;;3.62;3.12;;;;;;;;;;1935965;74;21040;-57
2022/05/25 12:54:26;;;;;;;4.58;3.12;;;;;;;;;;1936359;74;21094;-57
2022/05/25 12:56:53;;;;;;;;;;;;;;;;;;1938983;74;21012;-58
2022/05/25 12:59:36;;;;;;;6.97;4.72;;;;;;;;;;1936112;74;20444;-58
2022/05/25 13:02:12;;;;;;;5.55;2.83;;;;;;;;;;1936181;74;21471;-57
2022/05/25 13:04:42;;;;;;;2.45;1.90;;;;;;;;;;1936118;74;20984;-57
2022/05/25 13:07:12;;;;;;;2.30;2.10;;;;;;;;;;1936064;74;21102;-57
2022/05/25 13:09:42;;;;;;;2.50;2.30;;;;;;;;;;1925077;73;21013;-58
2022/05/25 13:12:28;;;;;;;3.27;2.98;;;;;;;;;;1936125;74;21020;-57
2022/05/25 13:14:57;;;;;;;2.95;2.50;;;;;;;;;;1936072;74;20996;-57
2022/05/25 13:17:43;;;;;;;3.90;2.47;;;;;;;;;;1936137;73;21021;-57
2022/05/25 13:20:10;;;;;;;;;;;;;;;;;;1938902;74;20980;-57
2022/05/25 13:22:39;;;;;;;4.58;2.80;;;;;;;;;;1936118;74;20362;-57
2022/05/25 13:25:09;;;;;;;3.52;2.80;;;;;;;;;;1936057;74;21267;-57
2022/05/25 13:27:57;;;;;;;3.10;2.80;;;;;;;;;;1936143;73;21062;-57
2022/05/25 13:30:30;;;;;;;4.22;3.25;;;;;;;;;;1936022;74;20980;-57
2022/05/25 13:33:02;;;;;;;3.80;2.83;;;;;;;;;;1936325;74;21064;-58
2022/05/25 13:35:39;;;;;;;3.45;2.42;;;;;;;;;;1936283;74;21025;-57
2022/05/25 13:38:08;;;;;;;3.87;2.60;;;;;;;;;;1936269;74;20993;-58
2022/05/25 13:40:39;;;;;;;3.30;2.58;;;;;;;;;;1928187;73;21111;-57
2022/05/25 13:43:08;;;;;;;3.20;2.55;;;;;;;;;;1924682;74;21083;-58
2022/05/25 13:45:38;;;;;;;3.10;2.47;;;;;;;;;;1923955;74;21070;-57
2022/05/25 13:48:09;;;;;;;3.15;2.85;;;;;;;;;;1924860;74;21013;-57
2022/05/25 13:50:39;;;;;;;3.35;2.62;;;;;;;;;;1924612;74;20981;-57
2022/05/25 13:53:10;;;;;;;5.70;2.87;;;;;;;;;;1924757;74;21013;-58
2022/05/25 13:55:39;;;;;;;5.22;3.50;;;;;;;;;;1924564;74;21082;-58
2022/05/25 13:58:10;;;;;;;10.13;4.25;;;;;;;;;;1924065;74;21017;-58
2022/05/25 14:00:41;;;;;;;4.15;3.27;;;;;;;;;;1924695;74;21521;-58
2022/05/25 14:03:17;;;;;;;3.50;2.85;;;;;;;;;;1924788;74;21086;-57
2022/05/25 14:05:47;;;;;;;10.78;4.22;;;;;;;;;;1924589;74;21033;-58
2022/05/25 14:08:17;;;;;;;3.83;2.55;;;;;;;;;;1924648;74;21001;-58
2022/05/25 14:11:00;;;;;;;3.65;2.72;;;;;;;;;;1924569;74;21094;-58